Time;durP1;ratioP1;P1;durP2;ratioP2;P2;SDS_P1;SDS_P2;PMS_P1;PMS_P2;Temp;Humidity;BMP_temperature;BMP_pressure;BME280_temperature;BME280_humidity;BME280_pressure;Samples;Min_cycle;Max_cycle;Signal;HPM_P1;HPM_P2
2022/07/12 00:01:29;;;;;;;0.50;0.47;;;;;;;21.29;52.65;102436.25;5088325;28;20382;-60
2022/07/12 00:03:54;;;;;;;0.60;0.40;;;;;;;21.28;52.74;102431.84;5087889;28;20021;-60
2022/07/12 00:06:19;;;;;;;0.98;0.52;;;;;;;21.26;52.60;102431.13;5086998;28;20028;-60
2022/07/12 00:08:45;;;;;;;1.38;0.82;;;;;;;21.23;52.46;102426.00;5087876;28;20094;-60
2022/07/12 00:11:10;;;;;;;0.50;0.50;;;;;;;21.09;52.62;102394.00;5077035;28;20028;-60
2022/07/12 00:13:35;;;;;;;0.47;0.40;;;;;;;21.26;52.28;102422.16;5067755;28;20040;-60
2022/07/12 00:16:00;;;;;;;0.47;0.47;;;;;;;21.25;52.39;102429.41;5067856;28;20048;-60
2022/07/12 00:18:25;;;;;;;1.08;0.52;;;;;;;21.06;52.60;102394.31;5067203;28;20040;-60
2022/07/12 00:20:51;;;;;;;1.13;0.52;;;;;;;21.25;52.65;102417.75;5067659;28;20418;-60
2022/07/12 00:23:16;;;;;;;1.70;0.50;;;;;;;21.24;52.61;102419.59;5067189;28;20033;-61
2022/07/12 00:25:42;;;;;;;0.47;0.40;;;;;;;21.24;52.52;102419.59;5066475;28;20079;-59
2022/07/12 00:28:08;;;;;;;0.98;0.63;;;;;;;21.22;52.22;102413.47;5066792;28;20032;-60
2022/07/12 00:30:33;;;;;;;0.93;0.82;;;;;;;21.22;52.29;102411.63;5066595;28;20025;-60
2022/07/12 00:32:58;;;;;;;0.60;0.50;;;;;;;21.22;52.12;102413.47;5066624;28;20489;-60
2022/07/12 00:35:24;;;;;;;0.95;0.60;;;;;;;21.22;52.20;102418.88;5066043;28;20043;-60
2022/07/12 00:37:49;;;;;;;1.05;0.85;;;;;;;21.04;52.25;102391.75;5067267;28;20029;-60
2022/07/12 00:40:14;;;;;;;0.52;0.50;;;;;;;21.21;52.36;102414.47;5067656;28;20055;-60
2022/07/12 00:42:39;;;;;;;0.70;0.60;;;;;;;21.20;52.15;102412.78;5065975;28;20505;-60
2022/07/12 00:45:06;;;;;;;0.75;0.52;;;;;;;21.19;51.92;102411.91;5065828;28;20060;-60
2022/07/12 00:47:37;;;;;;;0.60;0.60;;;;;;;21.19;51.85;102411.91;5066398;28;20048;-60
2022/07/12 00:50:06;;;;;;;1.23;0.50;;;;;;;21.19;52.16;102405.63;5067218;28;20048;-60
2022/07/12 00:52:32;;;;;;;0.40;0.40;;;;;;;21.18;52.13;102407.50;5065957;28;20027;-59
2022/07/12 00:54:57;;;;;;;0.73;0.60;;;;;;;21.17;52.19;102403.09;5066951;28;20106;-60
2022/07/12 00:57:22;;;;;;;0.52;0.52;;;;;;;21.17;52.11;102396.84;5067299;28;20056;-60
2022/07/12 00:59:48;;;;;;;0.90;0.60;;;;;;;21.15;52.09;102388.88;5066937;28;20100;-60
2022/07/12 01:02:13;;;;;;;0.55;0.55;;;;;;;21.15;51.92;102388.88;5068967;28;20084;-60
2022/07/12 01:04:39;;;;;;;1.70;0.50;;;;;;;21.15;51.92;102398.81;5077772;28;20095;-60
2022/07/12 01:07:05;;;;;;;0.90;0.70;;;;;;;21.14;51.58;102406.09;5073418;28;20582;-60
2022/07/12 01:09:30;;;;;;;1.15;0.60;;;;;;;21.13;51.91;102398.97;5049174;28;20020;-60
2022/07/12 01:11:55;;;;;;;0.45;0.45;;;;;;;21.13;51.50;102401.69;5083725;28;20024;-60
2022/07/12 01:14:20;;;;;;;0.70;0.60;;;;;;;21.12;51.57;102401.84;5085576;28;20025;-60
2022/07/12 01:16:46;;;;;;;0.65;0.65;;;;;;;20.86;51.42;102370.03;5087316;28;20469;-61
2022/07/12 01:19:19;;;;;;;0.50;0.50;;;;;;;20.86;51.54;102377.28;5078854;28;20524;-60
2022/07/12 01:21:46;;;;;;;0.98;0.70;;;;;;;21.01;51.24;102400.16;5049858;28;20105;-61
2022/07/12 01:24:12;;;;;;;0.65;0.50;;;;;;;20.90;51.60;102397.63;5066311;28;20021;-60
2022/07/12 01:26:38;;;;;;;0.70;0.50;;;;;;;20.89;51.55;102395.91;5066768;28;20058;-61
2022/07/12 01:29:05;;;;;;;0.40;0.40;;;;;;;21.08;51.18;102431.03;5066521;28;20385;-61
2022/07/12 01:31:30;;;;;;;0.63;0.60;;;;;;;21.07;51.37;102429.31;5048652;28;20021;-61
2022/07/12 01:33:55;;;;;;;0.40;0.40;;;;;;;21.08;51.31;102432.88;5066130;28;20063;-61
2022/07/12 01:36:21;;;;;;;0.50;0.50;;;;;;;21.05;51.46;102435.88;5073752;28;20465;-61
2022/07/12 01:38:46;;;;;;;0.70;0.45;;;;;;;21.05;50.94;102439.44;5067823;28;20017;-60
2022/07/12 01:41:11;;;;;;;0.40;0.40;;;;;;;21.04;51.02;102440.44;5086537;28;20074;-60
2022/07/12 01:43:36;;;;;;;1.08;0.68;;;;;;;21.03;51.33;102446.84;5085825;28;20063;-61
2022/07/12 01:46:02;;;;;;;0.40;0.40;;;;;;;21.01;51.09;102440.72;5086000;28;20055;-60
2022/07/12 01:48:27;;;;;;;0.63;0.60;;;;;;;21.01;51.19;102451.53;5086149;28;20028;-60
2022/07/12 01:50:53;;;;;;;1.42;1.05;;;;;;;21.01;51.00;102456.94;5086070;28;20032;-60
2022/07/12 01:53:19;;;;;;;0.60;0.50;;;;;;;20.80;51.18;102430.06;5084641;28;20027;-60
2022/07/12 01:55:44;;;;;;;1.35;0.57;;;;;;;20.80;51.15;102423.81;5084580;28;20025;-60
2022/07/12 01:58:12;;;;;;;0.98;0.60;;;;;;;21.01;50.90;102467.75;5085009;28;20080;-60
2022/07/12 02:00:37;;;;;;;1.33;0.65;;;;;;;21.00;50.97;102467.91;5085894;28;20036;-60
2022/07/12 02:03:02;;;;;;;0.70;0.60;;;;;;;20.76;51.15;102425.94;5084983;28;20037;-60
2022/07/12 02:05:28;;;;;;;0.80;0.80;;;;;;;20.98;50.84;102468.03;5086004;28;20084;-60
2022/07/12 02:07:53;;;;;;;0.80;0.75;;;;;;;20.96;50.91;102462.78;5084281;28;20032;-60
2022/07/12 02:10:18;;;;;;;0.88;0.77;;;;;;;20.93;50.83;102448.69;5078992;28;20029;-61
2022/07/12 02:12:44;;;;;;;0.88;0.70;;;;;;;20.97;51.21;102450.13;5064322;28;20069;-60
2022/07/12 02:15:10;;;;;;;0.95;0.85;;;;;;;20.96;51.01;102443.00;5064365;28;20032;-60
2022/07/12 02:17:35;;;;;;;1.13;0.60;;;;;;;20.94;50.61;102437.75;5066202;28;20029;-60
2022/07/12 02:20:00;;;;;;;0.75;0.50;;;;;;;20.94;50.87;102437.75;5064379;28;20166;-60
2022/07/12 02:22:25;;;;;;;0.50;0.50;;;;;;;20.94;50.98;102442.28;5063826;28;20033;-60
2022/07/12 02:24:51;;;;;;;0.77;0.52;;;;;;;20.93;50.87;102440.59;5065404;28;20036;-60
2022/07/12 02:27:16;;;;;;;1.00;0.63;;;;;;;20.89;50.59;102433.75;5065647;28;20115;-61
2022/07/12 02:29:41;;;;;;;0.80;0.60;;;;;;;20.91;50.45;102429.91;5065196;28;20040;-60
2022/07/12 02:32:07;;;;;;;0.70;0.52;;;;;;;20.88;50.79;102427.50;5047741;28;20118;-61
2022/07/12 02:34:32;;;;;;;0.75;0.50;;;;;;;20.89;50.62;102437.31;5063708;28;20021;-61
2022/07/12 02:36:57;;;;;;;0.75;0.50;;;;;;;20.78;50.39;102415.88;5065521;28;20425;-61
2022/07/12 02:39:23;;;;;;;0.40;0.40;;;;;;;20.87;50.39;102436.63;5047104;28;20025;-60
2022/07/12 02:41:48;;;;;;;1.58;0.60;;;;;;;20.68;50.46;102390.69;5063274;28;20021;-60
2022/07/12 02:44:13;;;;;;;0.70;0.50;;;;;;;20.87;50.66;102433.06;5047278;28;20098;-61
2022/07/12 02:46:39;;;;;;;0.70;0.70;;;;;;;20.86;50.25;102426.81;5065356;28;20028;-60
2022/07/12 02:49:04;;;;;;;0.80;0.50;;;;;;;20.87;50.52;102433.06;5065123;28;20033;-60
2022/07/12 02:51:29;;;;;;;1.00;0.60;;;;;;;20.85;50.08;102429.63;5064231;28;20021;-60
2022/07/12 02:53:54;;;;;;;0.45;0.45;;;;;;;20.63;50.42;102393.81;5064664;28;20548;-60
2022/07/12 02:56:20;;;;;;;0.85;0.50;;;;;;;20.82;50.02;102422.69;5063869;28;20017;-60
2022/07/12 02:58:45;;;;;;;0.95;0.68;;;;;;;20.83;50.29;102437.91;5064989;28;20034;-60
2022/07/12 03:01:11;;;;;;;0.47;0.47;;;;;;;20.81;50.24;102426.38;5064124;28;20029;-60
2022/07/12 03:03:36;;;;;;;1.08;0.50;;;;;;;20.82;49.89;102433.50;5047352;28;20029;-60
2022/07/12 03:06:02;;;;;;;1.60;0.73;;;;;;;20.79;50.07;102432.94;5065080;28;20029;-60
2022/07/12 03:08:27;;;;;;;0.60;0.60;;;;;;;20.81;50.38;102433.63;5063376;28;20029;-60
2022/07/12 03:10:52;;;;;;;0.80;0.60;;;;;;;20.79;50.36;102444.59;5074660;28;20104;-60
2022/07/12 03:13:18;;;;;;;0.68;0.52;;;;;;;20.79;50.14;102439.19;5084823;28;20040;-59
2022/07/12 03:15:45;;;;;;;1.05;0.60;;;;;;;20.77;49.73;102443.88;5066857;28;20081;-60
2022/07/12 03:18:11;;;;;;;0.75;0.50;;;;;;;20.78;50.01;102439.34;5085189;28;20043;-60
2022/07/12 03:20:36;;;;;;;2.20;0.70;;;;;;;20.58;50.00;102408.75;5083577;28;20024;-60
2022/07/12 03:23:01;;;;;;;0.95;0.50;;;;;;;20.72;50.12;102428.09;5084327;28;20021;-60
2022/07/12 03:25:27;;;;;;;4.15;0.60;;;;;;;20.52;49.79;102391.28;5066519;28;20473;-60
2022/07/12 03:27:52;;;;;;;0.82;0.80;;;;;;;20.76;49.82;102442.16;5083807;28;20059;-60
2022/07/12 03:30:17;;;;;;;0.50;0.50;;;;;;;20.75;49.66;102432.34;5084824;28;20024;-60
2022/07/12 03:32:43;;;;;;;0.52;0.47;;;;;;;20.54;49.90;102401.94;5085169;28;20116;-60
2022/07/12 03:35:09;;;;;;;0.88;0.63;;;;;;;20.74;49.62;102427.97;5084563;28;20017;-60
2022/07/12 03:37:51;;;;;;;0.63;0.60;;;;;;;20.74;50.02;102435.22;5084350;28;20078;-60
2022/07/12 03:40:17;;;;;;;1.50;0.80;;;;;;;20.53;50.09;102395.69;5083854;28;20012;-60
2022/07/12 03:42:43;;;;;;;1.20;0.50;;;;;;;20.74;49.86;102432.50;5066454;28;20042;-60
2022/07/12 03:45:10;;;;;;;0.52;0.52;;;;;;;20.72;49.61;102429.94;5084325;28;20044;-60
2022/07/12 03:47:35;;;;;;;1.20;0.70;;;;;;;20.49;49.71;102388.88;5066813;28;20021;-60
2022/07/12 03:50:06;;;;;;;0.60;0.60;;;;;;;20.71;49.66;102431.78;5084766;28;20196;-60
2022/07/12 03:52:32;;;;;;;1.30;0.60;;;;;;;20.70;49.88;102424.69;5083216;28;20028;-60
2022/07/12 03:54:57;;;;;;;0.95;0.82;;;;;;;20.68;49.74;102426.66;5086475;28;20526;-60
2022/07/12 03:57:24;;;;;;;1.20;0.70;;;;;;;20.47;49.61;102374.59;5087474;28;20028;-60
2022/07/12 03:59:49;;;;;;;1.77;0.75;;;;;;;20.69;49.93;102411.31;5087204;28;20021;-60
2022/07/12 04:02:15;;;;;;;1.52;0.60;;;;;;;20.46;49.58;102367.50;5088363;28;20020;-60
2022/07/12 04:04:41;;;;;;;0.65;0.63;;;;;;;20.66;49.78;102398.09;5087851;28;20049;-60
2022/07/12 04:07:07;;;;;;;0.82;0.70;;;;;;;20.66;49.80;102401.66;5088305;28;20028;-60
2022/07/12 04:09:32;;;;;;;1.10;0.70;;;;;;;20.66;49.88;102400.78;5086587;28;20073;-60
2022/07/12 04:11:57;;;;;;;1.42;0.70;;;;;;;20.62;49.52;102392.13;5086450;28;20028;-60
2022/07/12 04:14:23;;;;;;;1.05;0.98;;;;;;;20.66;49.74;102395.38;5069980;28;20115;-60
2022/07/12 04:16:48;;;;;;;3.83;0.63;;;;;;;20.63;49.47;102395.66;5069801;28;20031;-60
2022/07/12 04:19:13;;;;;;;1.33;1.08;;;;;;;20.64;49.58;102392.81;5087844;28;20034;-59
2022/07/12 04:21:39;;;;;;;0.63;0.50;;;;;;;20.64;49.40;102402.78;5086828;28;20032;-60
2022/07/12 04:24:04;;;;;;;0.82;0.70;;;;;;;20.63;49.39;102404.63;5087971;28;20059;-60
2022/07/12 04:26:30;;;;;;;0.85;0.70;;;;;;;20.61;49.41;102406.63;5086656;28;20025;-60
2022/07/12 04:28:55;;;;;;;0.80;0.50;;;;;;;20.62;49.65;102421.84;5086602;28;20024;-60
2022/07/12 04:31:20;;;;;;;0.50;0.50;;;;;;;20.62;49.80;102429.09;5088053;28;20024;-60
2022/07/12 04:33:46;;;;;;;1.15;0.60;;;;;;;20.60;49.71;102423.84;5087546;28;20050;-60
2022/07/12 04:36:11;;;;;;;0.57;0.57;;;;;;;20.42;49.59;102407.44;5087642;28;20088;-60
2022/07/12 04:38:36;;;;;;;1.00;0.52;;;;;;;20.60;49.80;102441.88;5087141;28;20090;-60
2022/07/12 04:41:02;;;;;;;0.70;0.60;;;;;;;20.59;49.61;102438.34;5086569;28;20064;-60
2022/07/12 04:43:27;;;;;;;1.73;0.80;;;;;;;20.59;49.48;102435.63;5085673;28;20044;-60
2022/07/12 04:45:53;;;;;;;0.93;0.70;;;;;;;20.59;49.91;102437.47;5087293;28;20051;-60
2022/07/12 04:48:18;;;;;;;1.05;0.80;;;;;;;20.58;50.14;102433.09;5086277;28;20111;-60
2022/07/12 04:50:43;;;;;;;1.00;0.80;;;;;;;20.58;49.71;102433.94;5087243;28;20136;-60
2022/07/12 04:53:09;;;;;;;1.00;0.90;;;;;;;20.58;50.08;102425.81;5085716;28;20083;-60
2022/07/12 04:55:34;;;;;;;1.63;0.63;;;;;;;20.40;50.04;102400.50;5085715;28;20021;-59
2022/07/12 04:57:59;;;;;;;1.00;0.90;;;;;;;20.58;50.01;102428.53;5086067;28;20037;-59
2022/07/12 05:00:25;;;;;;;1.10;1.00;;;;;;;20.58;49.72;102431.22;5085746;28;20056;-60
2022/07/12 05:02:50;;;;;;;1.27;0.85;;;;;;;20.56;50.11;102425.13;5086230;28;20030;-59
2022/07/12 05:05:15;;;;;;;1.27;0.70;;;;;;;20.59;50.14;102426.69;5085600;28;20544;-60
2022/07/12 05:07:41;;;;;;;0.90;0.90;;;;;;;20.57;49.83;102434.94;5055767;28;20033;-60
2022/07/12 05:10:07;;;;;;;1.20;0.88;;;;;;;20.58;49.88;102438.50;5070805;28;20107;-59
2022/07/12 05:12:34;;;;;;;1.20;0.85;;;;;;;20.56;50.07;102437.75;5086492;28;20021;-60
2022/07/12 05:14:59;;;;;;;0.70;0.70;;;;;;;20.36;50.32;102415.28;5085217;28;20096;-60
2022/07/12 05:17:25;;;;;;;1.00;0.80;;;;;;;20.58;50.50;102444.75;5068557;28;20025;-61
2022/07/12 05:19:50;;;;;;;3.08;0.95;;;;;;;20.59;50.44;102449.16;5086488;28;20036;-60
2022/07/12 05:22:15;;;;;;;1.50;0.77;;;;;;;20.59;50.55;102456.41;5086733;28;20086;-60
2022/07/12 05:24:40;;;;;;;0.88;0.80;;;;;;;20.60;50.25;102466.22;5086372;28;20025;-60
2022/07/12 05:27:06;;;;;;;1.90;1.02;;;;;;;20.60;50.42;102474.31;5085293;28;20028;-60
2022/07/12 05:29:31;;;;;;;1.15;0.68;;;;;;;20.62;50.38;102480.44;5085048;28;20058;-60
2022/07/12 05:31:57;;;;;;;0.90;0.90;;;;;;;20.63;50.41;102483.00;5086373;28;20502;-60
2022/07/12 05:34:22;;;;;;;0.88;0.80;;;;;;;20.63;50.80;102474.03;5084771;28;20031;-60
2022/07/12 05:36:47;;;;;;;1.35;0.80;;;;;;;20.64;50.96;102473.03;5085051;28;20037;-60
2022/07/12 05:39:13;;;;;;;0.95;0.85;;;;;;;20.65;50.87;102474.78;5086104;28;20032;-60
2022/07/12 05:41:38;;;;;;;0.82;0.75;;;;;;;20.65;50.78;102481.03;5084584;28;20123;-60
2022/07/12 05:44:03;;;;;;;0.80;0.80;;;;;;;20.62;51.13;102475.91;5084683;28;20045;-60
2022/07/12 05:46:29;;;;;;;0.85;0.85;;;;;;;20.46;51.00;102453.94;5085978;28;20036;-60
2022/07/12 05:48:54;;;;;;;1.15;1.05;;;;;;;20.67;50.92;102495.22;5084799;28;20052;-60
2022/07/12 05:54:04;;;;;;;1.23;0.77;;;;;;;20.65;51.48;102474.78;5085957;28;20086;-60
2022/07/12 05:56:29;;;;;;;1.70;1.05;;;;;;;20.47;51.46;102447.53;5086114;28;20029;-60
2022/07/12 05:58:55;;;;;;;0.80;0.80;;;;;;;20.66;51.60;102480.03;5084733;28;20055;-60
2022/07/12 06:01:20;;;;;;;1.55;0.77;;;;;;;20.65;51.68;102481.03;5084990;28;20050;-60
2022/07/12 06:03:45;;;;;;;1.88;0.80;;;;;;;20.66;51.89;102481.88;5085728;28;20528;-60
2022/07/12 06:06:11;;;;;;;0.75;0.70;;;;;;;20.68;51.96;102482.56;5085888;28;20027;-60
2022/07/12 06:08:37;;;;;;;0.70;0.70;;;;;;;20.66;51.67;102482.72;5085402;28;20029;-60
2022/07/12 06:11:02;;;;;;;0.73;0.73;;;;;;;20.66;52.11;102480.03;5073867;28;20032;-60
2022/07/12 06:13:28;;;;;;;0.85;0.85;;;;;;;20.45;51.83;102445.00;5065150;28;20390;-59
2022/07/12 06:15:55;;;;;;;1.67;0.90;;;;;;;20.51;51.82;102461.66;5064098;28;20025;-59
2022/07/12 06:18:21;;;;;;;1.00;0.65;;;;;;;20.49;52.10;102452.84;5063365;28;20036;-60
2022/07/12 06:20:46;;;;;;;0.90;0.90;;;;;;;20.70;52.24;102486.00;5063952;28;20028;-60
2022/07/12 06:23:12;;;;;;;0.90;0.80;;;;;;;20.51;51.83;102448.16;5063888;28;20033;-60
2022/07/12 06:25:38;;;;;;;1.40;0.98;;;;;;;20.51;52.03;102454.41;5065186;28;20028;-60
2022/07/12 06:28:04;;;;;;;1.60;1.02;;;;;;;20.72;52.44;102486.69;5064202;28;20033;-60
2022/07/12 06:30:30;;;;;;;0.95;0.80;;;;;;;20.70;52.25;102477.91;5063995;28;20033;-60
2022/07/12 06:32:55;;;;;;;0.80;0.80;;;;;;;20.72;52.14;102476.72;5065445;28;20470;-60
2022/07/12 06:35:20;;;;;;;0.80;0.80;;;;;;;20.72;52.28;102475.88;5063691;28;20024;-60
2022/07/12 06:37:46;;;;;;;1.02;0.90;;;;;;;20.78;52.29;102482.59;5063542;28;20033;-60
2022/07/12 06:40:11;;;;;;;0.98;0.88;;;;;;;20.78;52.41;102488.84;5064165;28;20036;-60
2022/07/12 06:42:37;;;;;;;1.10;0.90;;;;;;;20.59;52.45;102451.00;5063423;28;20028;-60
2022/07/12 06:45:03;;;;;;;1.98;0.85;;;;;;;20.79;52.69;102477.03;5046716;28;20041;-60
2022/07/12 06:47:28;;;;;;;1.05;0.75;;;;;;;20.80;52.41;102478.72;5047020;28;20490;-60
2022/07/12 06:49:54;;;;;;;0.90;0.70;;;;;;;20.76;52.39;102474.59;5047072;28;20049;-60
2022/07/12 06:52:19;;;;;;;1.10;0.90;;;;;;;20.80;52.63;102481.44;5065155;28;20478;-60
2022/07/12 06:54:44;;;;;;;0.77;0.77;;;;;;;20.82;52.43;102479.47;5063278;28;20035;-60
2022/07/12 06:57:10;;;;;;;0.88;0.77;;;;;;;20.62;52.79;102451.56;5065123;28;20029;-60
2022/07/12 06:59:35;;;;;;;0.80;0.63;;;;;;;20.83;53.01;102478.44;5065026;28;20036;-60
2022/07/12 07:02:00;;;;;;;0.80;0.80;;;;;;;20.63;52.59;102445.16;5063657;28;20032;-60
2022/07/12 07:04:26;;;;;;;1.70;0.80;;;;;;;20.83;52.99;102480.31;5063400;28;20033;-60
2022/07/12 07:06:51;;;;;;;0.82;0.75;;;;;;;20.82;52.77;102484.88;5064831;28;20029;-60
2022/07/12 07:09:17;;;;;;;0.77;0.77;;;;;;;20.84;52.68;102482.00;5063072;28;20036;-60
2022/07/12 07:11:42;;;;;;;0.85;0.70;;;;;;;20.84;52.93;102484.72;5080964;28;20028;-60
2022/07/12 07:14:08;;;;;;;0.80;0.80;;;;;;;20.85;52.92;102487.25;5084908;28;20025;-60
2022/07/12 07:16:33;;;;;;;0.70;0.70;;;;;;;20.54;52.99;102431.66;5083555;28;20098;-60
2022/07/12 07:18:58;;;;;;;0.60;0.60;;;;;;;20.87;53.06;102492.53;5084856;28;20024;-60
2022/07/12 07:21:24;;;;;;;0.70;0.70;;;;;;;20.66;52.95;102454.84;5084947;28;20765;-60
2022/07/12 07:23:50;;;;;;;0.75;0.60;;;;;;;20.88;53.12;102484.28;5083193;28;20051;-60
2022/07/12 07:26:15;;;;;;;1.00;0.90;;;;;;;20.60;52.95;102439.19;5083395;28;20020;-60
2022/07/12 07:31:24;;;;;;;0.98;0.90;;;;;;;20.90;52.87;102487.72;5088771;28;20054;-59
2022/07/12 07:33:50;;;;;;;0.68;0.57;;;;;;;20.91;53.32;102475.88;5088379;28;20056;-60
2022/07/12 07:36:15;;;;;;;2.08;0.73;;;;;;;20.93;53.16;102473.03;5087203;28;20039;-60
2022/07/12 07:38:40;;;;;;;0.82;0.82;;;;;;;20.93;52.81;102470.31;5088258;28;20083;-60
2022/07/12 07:41:06;;;;;;;1.50;0.90;;;;;;;20.94;52.84;102470.19;5088928;28;20036;-60
2022/07/12 07:43:31;;;;;;;1.00;0.77;;;;;;;20.96;53.07;102470.91;5086736;28;20155;-60
2022/07/12 07:45:57;;;;;;;0.90;0.80;;;;;;;20.97;52.46;102474.44;5088506;28;20024;-59
2022/07/12 07:48:22;;;;;;;0.55;0.52;;;;;;;21.00;52.76;102476.03;5088533;28;20039;-60
2022/07/12 07:50:47;;;;;;;0.75;0.70;;;;;;;21.01;52.75;102481.28;5088423;28;20044;-59
2022/07/12 07:53:13;;;;;;;0.50;0.50;;;;;;;20.81;52.41;102441.72;5087928;28;20035;-60
2022/07/12 07:55:38;;;;;;;0.75;0.63;;;;;;;21.02;52.42;102479.41;5086807;28;20054;-60
2022/07/12 07:58:03;;;;;;;0.93;0.70;;;;;;;21.01;52.25;102472.31;5088568;28;20087;-60
2022/07/12 08:00:29;;;;;;;0.93;0.73;;;;;;;21.07;52.38;102479.84;5088041;28;20032;-60
2022/07/12 08:02:55;;;;;;;0.90;0.73;;;;;;;21.09;52.13;102481.41;5070329;28;20454;-60
2022/07/12 08:05:21;;;;;;;1.27;0.73;;;;;;;21.11;52.42;102474.03;5086566;28;20024;-60
2022/07/12 08:07:46;;;;;;;1.00;0.90;;;;;;;20.92;52.02;102447.84;5087574;28;20161;-60
2022/07/12 08:10:11;;;;;;;0.60;0.55;;;;;;;21.13;51.94;102479.28;5082019;28;20040;-60
2022/07/12 08:12:36;;;;;;;0.50;0.50;;;;;;;21.12;51.91;102480.28;5067497;28;20029;-60
2022/07/12 08:15:02;;;;;;;0.70;0.70;;;;;;;21.15;52.31;102488.06;5066249;28;20059;-60
2022/07/12 08:17:28;;;;;;;0.93;0.77;;;;;;;21.15;52.29;102488.06;5066673;28;20048;-60
2022/07/12 08:19:53;;;;;;;0.50;0.50;;;;;;;20.92;51.96;102441.59;5067568;28;20067;-60
2022/07/12 08:22:18;;;;;;;0.80;0.80;;;;;;;20.93;52.16;102443.28;5066558;28;20020;-60
2022/07/12 08:24:44;;;;;;;2.00;0.90;;;;;;;21.15;52.11;102472.72;5067196;28;20035;-60
2022/07/12 08:27:09;;;;;;;0.50;0.45;;;;;;;21.19;51.93;102473.25;5067686;28;20036;-60
2022/07/12 08:29:34;;;;;;;0.50;0.50;;;;;;;21.15;52.22;102467.31;5067364;28;20029;-60
2022/07/12 08:32:00;;;;;;;1.00;0.52;;;;;;;21.21;51.96;102474.84;5067933;28;20025;-61
2022/07/12 08:34:25;;;;;;;0.90;0.60;;;;;;;21.22;52.21;102471.13;5065660;28;20032;-61
2022/07/12 08:36:50;;;;;;;1.05;0.52;;;;;;;21.23;52.04;102472.81;5067611;28;20092;-61
2022/07/12 08:39:15;;;;;;;1.15;0.60;;;;;;;21.24;51.76;102473.69;5065570;28;20036;-59
2022/07/12 08:41:41;;;;;;;0.50;0.50;;;;;;;21.22;51.62;102468.41;5065324;28;20055;-61
2022/07/12 08:44:06;;;;;;;0.60;0.52;;;;;;;21.05;51.87;102447.53;5067016;28;20086;-61
2022/07/12 08:46:32;;;;;;;0.63;0.40;;;;;;;21.27;52.05;102475.25;5067191;28;20432;-61
2022/07/12 08:49:06;;;;;;;0.68;0.60;;;;;;;21.03;51.90;102446.00;5065967;28;20088;-61
2022/07/12 08:51:31;;;;;;;0.50;0.50;;;;;;;21.27;51.73;102488.78;5067209;28;20029;-62
2022/07/12 08:54:11;;;;;;;0.55;0.55;;;;;;;21.29;51.68;102484.94;5065408;28;20055;-60
2022/07/12 08:56:38;;;;;;;0.55;0.55;;;;;;;21.29;51.69;102489.50;5067092;28;20072;-60
2022/07/12 08:59:16;;;;;;;0.50;0.50;;;;;;;21.30;51.81;102489.34;5049465;28;20115;-60
2022/07/12 09:01:52;;;;;;;0.80;0.50;;;;;;;21.25;51.67;102479.97;5067076;28;20415;-60
2022/07/12 09:04:23;;;;;;;0.82;0.65;;;;;;;21.30;51.97;102491.19;5065487;28;20024;-60
2022/07/12 09:06:48;;;;;;;0.40;0.40;;;;;;;21.13;51.73;102460.34;5065403;28;20065;-60
2022/07/12 09:09:27;;;;;;;1.05;0.60;;;;;;;21.33;51.78;102490.94;5065110;28;20035;-61
2022/07/12 09:11:53;;;;;;;0.68;0.45;;;;;;;21.31;51.77;102488.34;5085589;28;20029;-60
2022/07/12 09:14:19;;;;;;;0.60;0.60;;;;;;;21.08;52.06;102449.97;5085436;28;20355;-60
2022/07/12 09:16:58;;;;;;;1.00;0.70;;;;;;;21.31;51.82;102491.03;5086436;28;20028;-60
2022/07/12 09:19:23;;;;;;;0.50;0.50;;;;;;;21.13;51.66;102447.66;5085460;28;20028;-59
2022/07/12 09:21:51;;;;;;;0.60;0.60;;;;;;;21.36;51.77;102483.34;5086652;28;20040;-59
2022/07/12 09:24:17;;;;;;;0.50;0.40;;;;;;;21.36;51.90;102475.25;5086311;28;20077;-59
2022/07/12 09:26:43;;;;;;;0.70;0.50;;;;;;;21.38;52.06;102472.41;5086456;28;20021;-59
2022/07/12 09:29:12;;;;;;;0.57;0.57;;;;;;;21.38;52.08;102470.56;5086609;28;20016;-60
2022/07/12 09:37:20;;;;;;;1.05;0.88;;;;;;;21.42;51.92;102460.28;5085477;28;20032;-60
2022/07/12 09:39:46;;;;;;;1.23;0.70;;;;;;;21.42;51.71;102457.59;5084550;28;20020;-60
2022/07/12 09:42:12;;;;;;;0.50;0.50;;;;;;;21.43;51.78;102449.31;5086051;28;20025;-60
2022/07/12 09:44:41;;;;;;;0.77;0.52;;;;;;;21.25;51.90;102410.47;5086013;28;20045;-60
2022/07/12 09:47:12;;;;;;;1.38;0.77;;;;;;;21.47;51.82;102449.88;5084771;28;20110;-60
2022/07/12 09:49:37;;;;;;;0.40;0.40;;;;;;;21.48;51.51;102445.31;5085912;28;20084;-61
2022/07/12 09:52:04;;;;;;;0.65;0.65;;;;;;;21.50;51.55;102448.72;5084751;28;20031;-60
2022/07/12 09:54:31;;;;;;;0.60;0.50;;;;;;;21.49;51.46;102445.16;5084431;28;20036;-60
2022/07/12 09:56:59;;;;;;;0.80;0.60;;;;;;;21.52;51.54;102444.84;5085610;28;20024;-60
2022/07/12 09:59:27;;;;;;;0.52;0.52;;;;;;;21.50;51.52;102432.50;5084628;28;20024;-60
2022/07/12 10:01:55;;;;;;;0.65;0.50;;;;;;;21.53;51.42;102438.44;5085840;28;20032;-61
2022/07/12 10:04:21;;;;;;;0.70;0.70;;;;;;;21.53;51.67;102433.03;5068124;28;20028;-60
2022/07/12 10:06:47;;;;;;;0.50;0.50;;;;;;;21.56;51.49;102448.13;5084293;28;20107;-60
2022/07/12 10:09:14;;;;;;;0.73;0.60;;;;;;;21.56;51.80;102446.28;5084492;28;20077;-60
2022/07/12 10:11:39;;;;;;;0.65;0.50;;;;;;;21.37;51.76;102420.16;5067211;28;20059;-61
2022/07/12 10:14:05;;;;;;;0.75;0.50;;;;;;;21.59;51.47;102461.38;5065670;28;20049;-60
2022/07/12 10:16:33;;;;;;;1.05;0.50;;;;;;;21.59;51.46;102462.22;5063948;28;20025;-61
2022/07/12 10:19:20;;;;;;;1.60;1.13;;;;;;;21.61;51.73;102460.19;5064675;28;20047;-60
2022/07/12 10:21:48;;;;;;;0.50;0.50;;;;;;;21.62;51.41;102455.63;5065441;28;20047;-60
2022/07/12 10:24:32;;;;;;;0.45;0.45;;;;;;;21.63;51.70;102451.94;5063941;28;20024;-60
2022/07/12 10:27:20;;;;;;;0.70;0.52;;;;;;;21.64;51.70;102446.38;5064221;28;20470;-60
2022/07/12 10:29:51;;;;;;;;;;;;;;;21.64;51.46;102440.13;5065386;28;20025;-60
2022/07/12 10:32:32;;;;;;;0.75;0.68;;;;;;;21.65;51.53;102449.94;5065383;28;19955;-61
2022/07/12 10:35:02;;;;;;;0.52;0.50;;;;;;;21.66;51.77;102452.50;5064960;28;20024;-60
2022/07/12 10:37:29;;;;;;;0.68;0.60;;;;;;;21.66;51.39;102449.81;5065120;28;20029;-60
2022/07/12 10:40:14;;;;;;;0.57;0.57;;;;;;;21.69;51.67;102452.19;5063564;28;20025;-60
2022/07/12 10:42:41;;;;;;;0.73;0.55;;;;;;;21.69;51.83;102445.94;5046760;28;20056;-60
2022/07/12 10:45:15;;;;;;;0.82;0.60;;;;;;;21.71;51.66;102450.19;5063653;28;20036;-61
2022/07/12 10:47:54;;;;;;;1.58;0.52;;;;;;;21.73;51.66;102446.47;5065131;28;20041;-60
2022/07/12 10:50:19;;;;;;;0.70;0.60;;;;;;;21.74;51.72;102450.88;5063869;28;20031;-60
2022/07/12 10:52:45;;;;;;;0.68;0.60;;;;;;;21.75;51.51;102447.16;5063447;28;20025;-60
2022/07/12 10:55:13;;;;;;;0.50;0.50;;;;;;;21.76;51.40;102435.38;5063688;28;20032;-61
2022/07/12 10:57:46;;;;;;;0.85;0.60;;;;;;;21.79;51.34;102448.56;5064881;28;20104;-60
2022/07/12 11:00:14;;;;;;;0.82;0.47;;;;;;;21.60;51.43;102423.31;5047069;28;20027;-61
2022/07/12 11:02:40;;;;;;;2.03;0.70;;;;;;;21.77;51.30;102443.31;5064385;28;20088;-59
2022/07/12 11:05:06;;;;;;;0.52;0.52;;;;;;;21.83;51.46;102452.69;5070286;28;20025;-59
2022/07/12 11:07:31;;;;;;;0.40;0.40;;;;;;;21.63;51.42;102416.75;5070541;28;20028;-60
2022/07/12 11:09:57;;;;;;;0.50;0.50;;;;;;;21.82;51.60;102451.84;5073952;28;20130;-59
2022/07/12 11:12:32;;;;;;;0.85;0.70;;;;;;;21.86;51.62;102441.56;5091366;28;20484;-59
2022/07/12 11:15:02;;;;;;;0.50;0.47;;;;;;;21.87;51.52;102445.97;5090482;28;21581;-59
2022/07/12 11:17:32;;;;;;;0.60;0.60;;;;;;;21.89;51.38;102447.53;5073374;28;20039;-60
2022/07/12 11:20:09;;;;;;;0.50;0.50;;;;;;;21.88;51.64;102443.13;5090448;28;20029;-60
2022/07/12 11:22:39;;;;;;;0.60;0.50;;;;;;;21.69;51.33;102408.88;5090574;28;20462;-60
2022/07/12 11:25:09;;;;;;;0.40;0.40;;;;;;;21.69;51.59;102411.59;5089831;28;20027;-60
2022/07/12 11:27:35;;;;;;;0.88;0.60;;;;;;;21.93;51.52;102438.09;5090294;28;20020;-60
2022/07/12 11:30:03;;;;;;;0.50;0.50;;;;;;;21.75;51.72;102415.56;5090018;28;20021;-60
2022/07/12 11:32:36;;;;;;;0.80;0.70;;;;;;;21.95;51.72;102438.78;5090076;28;20040;-60